createdAt,value
2018-05-02T00:02:09.019Z,101186.56
2018-05-02T00:04:36.707Z,101181.87
2018-05-02T00:07:04.718Z,101185.37
2018-05-02T00:09:32.505Z,101184.30
2018-05-02T00:12:00.102Z,101177.42
2018-05-02T00:14:27.687Z,101172.30
2018-05-02T00:16:55.292Z,101178.91
2018-05-02T00:19:22.976Z,101178.89
2018-05-02T00:21:50.815Z,101173.50
2018-05-02T00:24:18.618Z,101173.23
2018-05-02T00:26:46.373Z,101173.38
2018-05-02T00:29:14.072Z,101168.38
2018-05-02T00:31:41.647Z,101161.23
2018-05-02T00:34:09.315Z,101159.11
2018-05-02T00:36:36.843Z,101152.37
2018-05-02T00:39:04.495Z,101150.08
2018-05-02T00:41:32.094Z,101158.04
2018-05-02T00:43:59.640Z,101152.80
2018-05-02T00:46:27.329Z,101144.99
2018-05-02T00:49:07.064Z,101146.21
2018-05-02T00:51:34.981Z,101145.28
2018-05-02T00:54:02.623Z,101142.73
2018-05-02T00:56:30.470Z,101143.11
2018-05-02T00:58:58.391Z,101142.33
2018-05-02T01:01:26.126Z,101140.70
2018-05-02T01:03:53.767Z,101141.53
2018-05-02T01:06:21.333Z,101140.44
2018-05-02T01:08:49.211Z,101145.05
2018-05-02T01:11:16.871Z,101142.91
2018-05-02T01:13:44.484Z,101148.97
2018-05-02T01:16:12.091Z,101141.44
2018-05-02T01:18:39.737Z,101144.27
2018-05-02T01:21:07.347Z,101143.59
2018-05-02T01:23:35.028Z,101150.74
2018-05-02T01:26:02.624Z,101144.72
2018-05-02T01:28:30.192Z,101143.64
2018-05-02T01:30:57.747Z,101150.67
2018-05-02T01:33:25.436Z,101147.56
2018-05-02T01:35:53.254Z,101152.82
2018-05-02T01:38:20.829Z,101148.65
2018-05-02T01:40:48.380Z,101154.73
2018-05-02T01:43:16.135Z,101154.88
2018-05-02T01:45:43.674Z,101150.42
2018-05-02T01:48:11.451Z,101152.19
2018-05-02T01:50:39.022Z,101155.81
2018-05-02T01:53:06.737Z,101149.77
2018-05-02T01:55:34.430Z,101153.27
2018-05-02T01:58:01.994Z,101162.42
2018-05-02T02:00:29.787Z,101155.45
2018-05-02T02:02:57.454Z,101158.14
2018-05-02T02:05:25.280Z,101151.13
2018-05-02T02:07:52.862Z,101151.55
2018-05-02T02:10:20.698Z,101157.88
2018-05-02T02:12:48.279Z,101163.53
2018-05-02T02:15:15.822Z,101155.87
2018-05-02T02:17:43.431Z,101154.25
2018-05-02T02:20:10.976Z,101151.70
2018-05-02T02:22:38.660Z,101161.12
2018-05-02T02:25:06.376Z,101157.88
2018-05-02T02:27:33.939Z,101158.16
2018-05-02T02:30:01.722Z,101166.80
2018-05-02T02:32:29.487Z,101162.48
2018-05-02T02:34:57.029Z,101169.63
2018-05-02T02:37:24.586Z,101162.62
2018-05-02T02:39:52.196Z,101158.44
2018-05-02T02:42:19.749Z,101163.97
2018-05-02T02:44:48.293Z,101160.89
2018-05-02T02:47:16.010Z,101158.99
2018-05-02T02:49:43.583Z,101160.75
2018-05-02T02:52:11.275Z,101163.16
2018-05-02T02:54:39.115Z,101158.61
2018-05-02T02:57:06.852Z,101165.20
2018-05-02T02:59:34.434Z,101168.16
2018-05-02T03:02:03.499Z,101159.27
2018-05-02T03:04:31.142Z,101159.26
2018-05-02T03:06:58.774Z,101158.87
2018-05-02T03:09:26.419Z,101157.12
2018-05-02T03:11:58.843Z,101154.84
2018-05-02T03:14:26.465Z,101152.28
2018-05-02T03:16:54.182Z,101152.28
2018-05-02T03:19:22.262Z,101150.11
2018-05-02T03:21:50.120Z,101146.48
2018-05-02T03:24:17.716Z,101140.97
2018-05-02T03:26:45.289Z,101147.69
2018-05-02T03:29:12.936Z,101134.65
2018-05-02T03:31:40.481Z,101136.13
2018-05-02T03:34:08.231Z,101134.51
2018-05-02T03:36:35.927Z,101135.61
2018-05-02T03:39:03.596Z,101130.09
2018-05-02T03:41:31.179Z,101132.91
2018-05-02T03:43:58.730Z,101129.26
2018-05-02T03:46:26.528Z,101129.53
2018-05-02T03:48:54.492Z,101131.16
2018-05-02T03:51:22.145Z,101132.77
2018-05-02T03:53:49.717Z,101127.94
2018-05-02T03:56:17.305Z,101132.35
2018-05-02T03:58:45.096Z,101137.45
2018-05-02T04:01:24.830Z,101133.96
2018-05-02T04:04:04.298Z,101129.92
2018-05-02T04:09:39.234Z,101133.30
2018-05-02T04:12:06.859Z,101136.92
2018-05-02T04:14:34.463Z,101134.23
2018-05-02T04:17:02.112Z,101138.54
2018-05-02T04:19:29.790Z,101134.78
2018-05-02T04:21:57.633Z,101135.98
2018-05-02T04:24:25.695Z,101130.06
2018-05-02T04:26:53.561Z,101139.62
2018-05-02T04:29:21.162Z,101142.86
2018-05-02T04:31:49.209Z,101140.68
2018-05-02T04:34:16.764Z,101147.27
2018-05-02T04:36:44.466Z,101149.72
2018-05-02T04:39:12.260Z,101149.16
2018-05-02T04:41:39.884Z,101156.95
2018-05-02T04:44:07.702Z,101160.47
2018-05-02T04:46:35.409Z,101157.50
2018-05-02T04:49:03.080Z,101157.75
2018-05-02T04:51:30.672Z,101156.03
2018-05-02T04:53:58.507Z,101160.73
2018-05-02T04:56:26.564Z,101164.11
2018-05-02T04:58:54.420Z,101163.16
2018-05-02T05:01:21.989Z,101165.44
2018-05-02T05:03:49.638Z,101166.00
2018-05-02T05:06:17.188Z,101166.52
2018-05-02T05:08:45.288Z,101167.73
2018-05-02T05:11:12.923Z,101168.15
2018-05-02T05:13:40.712Z,101173.27
2018-05-02T05:16:08.360Z,101173.40
2018-05-02T05:18:36.194Z,101173.68
2018-05-02T05:21:03.835Z,101175.97
2018-05-02T05:23:31.472Z,101178.11
2018-05-02T05:25:59.262Z,101177.84
2018-05-02T05:28:27.070Z,101176.08
2018-05-02T05:30:54.790Z,101179.73
2018-05-02T05:33:22.383Z,101174.45
2018-05-02T05:35:50.110Z,101181.88
2018-05-02T05:38:17.946Z,101178.48
2018-05-02T05:40:45.736Z,101174.96
2018-05-02T05:43:13.609Z,101171.61
2018-05-02T05:45:41.195Z,101173.33
2018-05-02T05:48:09.278Z,101173.72
2018-05-02T05:50:36.913Z,101177.47
2018-05-02T05:53:04.561Z,101190.38
2018-05-02T05:55:32.269Z,101188.05
2018-05-02T05:57:59.943Z,101183.18
2018-05-02T06:00:27.518Z,101184.08
2018-05-02T06:02:55.347Z,101185.63
2018-05-02T06:05:24.224Z,101189.50
2018-05-02T06:07:51.809Z,101199.01
2018-05-02T06:10:19.889Z,101193.39
2018-05-02T06:12:47.524Z,101194.39
2018-05-02T06:15:15.078Z,101199.61
2018-05-02T06:17:42.897Z,101197.91
2018-05-02T06:20:10.529Z,101194.59
2018-05-02T06:22:38.517Z,101194.88
2018-05-02T06:25:06.099Z,101204.11
2018-05-02T06:27:33.697Z,101198.63
2018-05-02T06:30:01.339Z,101197.06
2018-05-02T06:32:28.906Z,101193.09
2018-05-02T06:34:57.324Z,101191.14
2018-05-02T06:37:25.028Z,101196.56
2018-05-02T06:39:52.967Z,101197.05
2018-05-02T06:42:21.691Z,101194.91
2018-05-02T06:44:49.444Z,101199.16
2018-05-02T06:47:17.327Z,101198.40
2018-05-02T06:49:44.875Z,101198.61
2018-05-02T06:52:12.921Z,101186.44
2018-05-02T06:54:40.778Z,101191.91
2018-05-02T06:57:08.690Z,101184.34
2018-05-02T06:59:36.562Z,101196.11
2018-05-02T07:02:04.180Z,101195.23
2018-05-02T07:04:32.177Z,101189.98
2018-05-02T07:06:59.757Z,101191.81
2018-05-02T07:09:27.375Z,101187.64
2018-05-02T07:11:55.065Z,101185.84
2018-05-02T07:14:22.728Z,101188.21
2018-05-02T07:16:50.286Z,101180.14
2018-05-02T07:19:18.113Z,101182.44
2018-05-02T07:21:45.751Z,101176.88
2018-05-02T07:24:13.684Z,101172.59
2018-05-02T07:26:41.239Z,101176.50
2018-05-02T07:29:08.784Z,101169.95
2018-05-02T07:31:36.367Z,101177.23
2018-05-02T07:34:03.928Z,101168.80
2018-05-02T07:36:31.502Z,101173.11
2018-05-02T07:38:59.342Z,101171.06
2018-05-02T07:41:26.965Z,101173.84
2018-05-02T07:43:54.535Z,101159.33
2018-05-02T07:46:22.818Z,101159.72
2018-05-02T07:48:50.533Z,101167.11
2018-05-02T07:51:18.103Z,101159.93
2018-05-02T07:53:45.776Z,101159.77
2018-05-02T07:56:13.589Z,101164.09
2018-05-02T07:58:41.156Z,101167.81
2018-05-02T08:01:08.746Z,101171.14
2018-05-02T08:03:36.300Z,101167.29
2018-05-02T08:06:03.909Z,101168.36
2018-05-02T08:08:31.495Z,101164.50
2018-05-02T08:10:59.082Z,101166.99
2018-05-02T08:13:26.670Z,101166.27
2018-05-02T08:15:54.466Z,101167.62
2018-05-02T08:18:22.554Z,101168.40
2018-05-02T08:20:50.355Z,101163.37
2018-05-02T08:23:17.979Z,101165.03
2018-05-02T08:25:45.627Z,101167.16
2018-05-02T08:28:13.557Z,101169.80
2018-05-02T08:30:41.107Z,101166.53
2018-05-02T08:33:08.655Z,101162.61
2018-05-02T08:35:36.471Z,101160.58
2018-05-02T08:38:04.090Z,101161.77
2018-05-02T08:40:32.032Z,101148.47
2018-05-02T08:42:59.592Z,101153.77
2018-05-02T08:45:27.394Z,101151.36
2018-05-02T08:47:55.227Z,101148.15
2018-05-02T08:50:22.887Z,101149.56
2018-05-02T08:52:50.494Z,101148.63
2018-05-02T08:55:18.126Z,101144.54
2018-05-02T08:57:45.758Z,101142.13
2018-05-02T09:00:13.969Z,101136.36
2018-05-02T09:02:41.523Z,101132.13
2018-05-02T09:05:09.079Z,101141.94
2018-05-02T09:07:36.656Z,101123.86
2018-05-02T09:10:04.584Z,101126.50
2018-05-02T09:12:32.214Z,101124.70
2018-05-02T09:14:59.766Z,101115.66
2018-05-02T09:17:27.346Z,101113.24
2018-05-02T09:19:54.925Z,101116.33
2018-05-02T09:22:22.753Z,101115.28
2018-05-02T09:24:50.582Z,101110.65
2018-05-02T09:27:18.469Z,101110.41
2018-05-02T09:29:46.096Z,101106.90
2018-05-02T09:32:13.699Z,101104.39
2018-05-02T09:34:41.295Z,101104.20
2018-05-02T09:37:08.956Z,101104.97
2018-05-02T09:39:36.577Z,101108.05
2018-05-02T09:42:04.167Z,101111.25
2018-05-02T09:44:31.952Z,101109.38
2018-05-02T09:46:59.732Z,101104.27
2018-05-02T09:49:27.660Z,101104.78
2018-05-02T09:51:55.222Z,101095.34
2018-05-02T09:54:22.808Z,101094.33
2018-05-02T09:56:50.433Z,101102.94
2018-05-02T09:59:18.013Z,101101.72
2018-05-02T10:01:45.783Z,101098.70
2018-05-02T10:04:13.405Z,101089.38
2018-05-02T10:06:40.961Z,101087.39
2018-05-02T10:09:08.561Z,101083.97
2018-05-02T10:11:36.108Z,101088.11
2018-05-02T10:14:03.669Z,101077.37
2018-05-02T10:16:31.252Z,101083.95
2018-05-02T10:18:59.041Z,101073.23
2018-05-02T10:21:26.682Z,101083.60
2018-05-02T10:23:54.236Z,101072.44
2018-05-02T10:26:22.154Z,101079.73
2018-05-02T10:28:49.769Z,101066.17
2018-05-02T10:31:17.545Z,101076.03
2018-05-02T10:33:45.522Z,101071.70
2018-05-02T10:36:13.143Z,101075.55
2018-05-02T10:38:41.009Z,101071.68
2018-05-02T10:41:08.653Z,101073.47
2018-05-02T10:43:36.218Z,101071.73
2018-05-02T10:46:03.869Z,101070.99
2018-05-02T10:48:31.423Z,101069.88
2018-05-02T10:50:59.011Z,101072.13
2018-05-02T10:53:26.613Z,101059.39
2018-05-02T10:55:54.220Z,101063.37
2018-05-02T10:58:21.837Z,101066.11
2018-05-02T11:00:49.807Z,101065.72
2018-05-02T11:03:17.486Z,101058.42
2018-05-02T11:05:45.047Z,101054.94
2018-05-02T11:08:12.601Z,101059.67
2018-05-02T11:10:40.514Z,101054.66
2018-05-02T11:13:08.311Z,101044.44
2018-05-02T11:15:35.860Z,101053.16
2018-05-02T11:18:03.444Z,101053.42
2018-05-02T11:20:31.014Z,101053.09
2018-05-02T11:22:58.697Z,101045.80
2018-05-02T11:25:26.515Z,101055.05
2018-05-02T11:27:54.113Z,101055.37
2018-05-02T11:30:21.912Z,101057.09
2018-05-02T11:32:49.597Z,101059.62
2018-05-02T11:35:17.171Z,101051.97
2018-05-02T11:37:44.820Z,101043.87
2018-05-02T11:40:12.426Z,101043.34
2018-05-02T11:42:39.966Z,101039.83
2018-05-02T11:45:07.760Z,101043.45
2018-05-02T11:47:35.339Z,101040.36
2018-05-02T11:50:02.958Z,101038.53
2018-05-02T11:52:30.591Z,101037.82
2018-05-02T11:54:58.141Z,101035.55
2018-05-02T11:57:25.827Z,101031.41
2018-05-02T11:59:53.387Z,101031.09
2018-05-02T12:02:20.943Z,101029.12
2018-05-02T12:04:48.528Z,101027.59
2018-05-02T12:07:16.325Z,101026.00
2018-05-02T12:09:43.933Z,101021.91
2018-05-02T12:12:11.499Z,101021.78
2018-05-02T12:14:39.128Z,101017.91
2018-05-02T12:17:06.787Z,101017.59
2018-05-02T12:19:34.376Z,101019.59
2018-05-02T12:22:02.184Z,101003.42
2018-05-02T12:24:29.752Z,101012.92
2018-05-02T12:26:57.326Z,101013.70
2018-05-02T12:29:24.973Z,101014.58
2018-05-02T12:31:52.868Z,101020.88
2018-05-02T12:34:20.448Z,101007.30
2018-05-02T12:36:47.997Z,101001.47
2018-05-02T12:39:15.852Z,100997.97
2018-05-02T12:41:43.454Z,100993.16
2018-05-02T12:44:11.007Z,100992.78
2018-05-02T12:46:38.646Z,100994.73
2018-05-02T12:49:06.166Z,100986.41
2018-05-02T12:51:33.711Z,100981.12
2018-05-02T12:54:01.327Z,100984.62
2018-05-02T12:56:28.877Z,100981.83
2018-05-02T12:58:56.457Z,100973.09
2018-05-02T13:01:24.352Z,100969.09
2018-05-02T13:03:51.942Z,100966.22
2018-05-02T13:06:19.882Z,100958.92
2018-05-02T13:08:47.430Z,100950.36
2018-05-02T13:11:14.974Z,100956.06
2018-05-02T13:13:42.650Z,100950.27
2018-05-02T13:16:10.199Z,100949.53
2018-05-02T13:18:37.994Z,100939.38
2018-05-02T13:21:05.635Z,100938.83
2018-05-02T13:23:33.151Z,100936.94
2018-05-02T13:26:00.872Z,100930.86
2018-05-02T13:28:28.652Z,100935.98
2018-05-02T13:30:56.341Z,100925.07
2018-05-02T13:33:23.893Z,100915.89
2018-05-02T13:35:51.677Z,100920.20
2018-05-02T13:38:19.251Z,100916.73
2018-05-02T13:40:46.803Z,100916.20
2018-05-02T13:43:14.405Z,100913.72
2018-05-02T13:45:41.955Z,100909.00
2018-05-02T13:48:09.742Z,100908.73
2018-05-02T13:50:37.391Z,100902.41
2018-05-02T13:53:05.264Z,100902.15
2018-05-02T13:55:32.838Z,100892.80
2018-05-02T13:58:00.456Z,100890.39
2018-05-02T14:00:28.003Z,100883.18
2018-05-02T14:02:55.547Z,100878.67
2018-05-02T14:05:23.357Z,100882.92
2018-05-02T14:07:51.105Z,100876.59
2018-05-02T14:10:18.713Z,100874.63
2018-05-02T14:12:46.330Z,100868.19
2018-05-02T14:15:13.977Z,100866.15
2018-05-02T14:17:41.595Z,100861.80
2018-05-02T14:20:09.174Z,100866.76
2018-05-02T14:22:36.729Z,100858.06
2018-05-02T14:25:04.334Z,100861.42
2018-05-02T14:27:31.931Z,100857.46
2018-05-02T14:29:59.722Z,100852.52
2018-05-02T14:32:27.433Z,100855.67
2018-05-02T14:34:55.059Z,100852.70
2018-05-02T14:37:22.612Z,100850.34
2018-05-02T14:39:50.178Z,100846.17
2018-05-02T14:42:18.198Z,100849.91
2018-05-02T14:44:45.817Z,100848.09
2018-05-02T14:47:13.365Z,100845.17
2018-05-02T14:49:41.016Z,100845.10
2018-05-02T14:52:08.562Z,100838.32
2018-05-02T14:54:36.193Z,100828.08
2018-05-02T14:57:03.967Z,100833.31
2018-05-02T14:59:31.610Z,100826.98
2018-05-02T15:01:59.172Z,100824.81
2018-05-02T15:04:26.953Z,100822.05
2018-05-02T15:06:54.491Z,100821.23
2018-05-02T15:09:22.132Z,100826.19
2018-05-02T15:11:50.511Z,100822.44
2018-05-02T15:14:18.055Z,100817.30
2018-05-02T15:16:45.597Z,100821.23
2018-05-02T15:19:13.242Z,100821.62
2018-05-02T15:21:40.809Z,100818.47
2018-05-02T15:24:08.435Z,100813.34
2018-05-02T15:26:36.068Z,100809.58
2018-05-02T15:29:03.631Z,100806.16
2018-05-02T15:31:31.185Z,100806.14
2018-05-02T15:33:58.764Z,100796.25
2018-05-02T15:36:26.315Z,100791.56
2018-05-02T15:38:53.963Z,100792.17
2018-05-02T15:41:21.590Z,100795.53
2018-05-02T15:43:49.669Z,100800.88
2018-05-02T15:46:17.236Z,100793.88
2018-05-02T15:48:44.812Z,100791.31
2018-05-02T15:51:12.402Z,100791.08
2018-05-02T15:53:39.980Z,100784.12
2018-05-02T15:56:07.626Z,100786.31
2018-05-02T15:58:35.271Z,100786.48
2018-05-02T16:01:02.850Z,100783.77
2018-05-02T16:03:30.471Z,100784.93
2018-05-02T16:05:58.051Z,100789.92
2018-05-02T16:08:25.634Z,100797.16
2018-05-02T16:10:53.430Z,100791.84
2018-05-02T16:13:21.034Z,100786.13
2018-05-02T16:15:48.591Z,100782.59
2018-05-02T16:18:16.156Z,100782.18
2018-05-02T16:20:44.170Z,100785.83
2018-05-02T16:23:11.832Z,100787.97
2018-05-02T16:25:39.462Z,100777.41
2018-05-02T16:28:07.066Z,100779.64
2018-05-02T16:30:34.627Z,100784.20
2018-05-02T16:33:02.435Z,100777.39
2018-05-02T16:35:30.131Z,100775.75
2018-05-02T16:37:57.692Z,100773.98
2018-05-02T16:40:25.235Z,100778.55
2018-05-02T16:42:52.841Z,100778.24
2018-05-02T16:45:20.389Z,100779.50
2018-05-02T16:47:48.207Z,100762.89
2018-05-02T16:50:16.751Z,100771.11
2018-05-02T16:52:44.367Z,100780.05
2018-05-02T16:55:11.929Z,100774.12
2018-05-02T16:57:39.611Z,100775.27
2018-05-02T17:00:07.169Z,100772.91
2018-05-02T17:02:34.721Z,100775.27
2018-05-02T17:05:02.315Z,100773.49
2018-05-02T17:07:29.937Z,100768.32
2018-05-02T17:09:57.755Z,100766.89
2018-05-02T17:12:25.301Z,100775.35
2018-05-02T17:14:52.979Z,100772.61
2018-05-02T17:17:20.538Z,100769.70
2018-05-02T17:19:48.091Z,100776.63
2018-05-02T17:22:15.697Z,100780.45
2018-05-02T17:24:43.264Z,100773.83
2018-05-02T17:27:10.948Z,100778.25
2018-05-02T17:29:38.504Z,100770.92
2018-05-02T17:32:06.070Z,100775.41
2018-05-02T17:34:33.840Z,100772.16
2018-05-02T17:37:01.814Z,100775.23
2018-05-02T17:39:29.371Z,100771.83
2018-05-02T17:41:57.052Z,100771.83
2018-05-02T17:44:24.550Z,100765.35
2018-05-02T17:46:52.098Z,100776.64
2018-05-02T17:49:20.121Z,100777.45
2018-05-02T17:51:47.668Z,100781.42
2018-05-02T17:54:15.222Z,100784.95
2018-05-02T17:56:42.802Z,100789.87
2018-05-02T17:59:10.388Z,100785.03
2018-05-02T18:01:37.972Z,100778.81
2018-05-02T18:04:05.584Z,100782.32
2018-05-02T18:06:33.167Z,100788.95
2018-05-02T18:09:00.715Z,100793.37
2018-05-02T18:11:28.328Z,100794.69
2018-05-02T18:14:01.905Z,100796.61
2018-05-02T18:16:29.588Z,100800.60
2018-05-02T18:18:57.147Z,100814.13
2018-05-02T18:21:24.748Z,100801.25
2018-05-02T18:23:52.329Z,100806.45
2018-05-02T18:26:19.946Z,100815.23
2018-05-02T18:28:47.521Z,100809.44
2018-05-02T18:31:15.307Z,100811.52
2018-05-02T18:33:42.915Z,100816.57
2018-05-02T18:36:10.505Z,100808.66
2018-05-02T18:38:38.054Z,100812.52
2018-05-02T18:41:05.637Z,100811.18
2018-05-02T18:43:33.191Z,100808.58
2018-05-02T18:46:00.842Z,100811.88
2018-05-02T18:48:28.399Z,100815.73
2018-05-02T18:50:56.244Z,100813.06
2018-05-02T18:53:23.809Z,100811.34
2018-05-02T18:55:51.399Z,100805.91
2018-05-02T18:58:19.230Z,100809.68
2018-05-02T19:00:46.782Z,100807.66
2018-05-02T19:03:14.331Z,100816.47
2018-05-02T19:05:42.004Z,100811.61
2018-05-02T19:08:09.546Z,100812.95
2018-05-02T19:10:37.191Z,100807.64
2018-05-02T19:13:04.874Z,100820.91
2018-05-02T19:15:32.462Z,100812.66
2018-05-02T19:18:05.673Z,100813.34
2018-05-02T19:20:36.126Z,100817.08
2018-05-02T19:23:03.711Z,100820.42
2018-05-02T19:25:36.840Z,100822.38
2018-05-02T19:28:04.771Z,100822.89
2018-05-02T19:30:32.319Z,100826.92
2018-05-02T19:33:05.411Z,100831.33
2018-05-02T19:35:33.091Z,100831.28
2018-05-02T19:38:00.623Z,100837.73
2018-05-02T19:40:33.669Z,100842.17
2018-05-02T19:43:06.796Z,100826.36
2018-05-02T19:45:34.770Z,100835.48
2018-05-02T19:48:02.311Z,100838.59
2018-05-02T19:50:29.935Z,100840.85
2018-05-02T19:52:57.844Z,100831.81
2018-05-02T19:55:25.388Z,100841.22
2018-05-02T19:57:52.932Z,100834.48
2018-05-02T20:00:25.975Z,100827.73
2018-05-02T20:02:59.236Z,100831.47
2018-05-02T20:05:26.815Z,100835.62
2018-05-02T20:07:54.607Z,100830.79
2018-05-02T20:10:28.413Z,100819.03
2018-05-02T20:13:02.111Z,100830.66
2018-05-02T20:15:29.814Z,100831.63
2018-05-02T20:17:57.590Z,100825.13
2018-05-02T20:20:25.156Z,100827.99
2018-05-02T20:22:52.835Z,100822.52
2018-05-02T20:25:20.442Z,100820.98
2018-05-02T20:27:48.090Z,100828.89
2018-05-02T20:30:15.671Z,100827.56
2018-05-02T20:32:43.214Z,100832.88
2018-05-02T20:35:10.787Z,100834.72
2018-05-02T20:37:38.335Z,100837.63
2018-05-02T20:40:06.319Z,100841.49
2018-05-02T20:42:33.886Z,100836.02
2018-05-02T20:45:01.431Z,100845.59
2018-05-02T20:47:29.035Z,100843.03
2018-05-02T20:49:56.585Z,100837.73
2018-05-02T20:52:24.575Z,100842.19
2018-05-02T20:54:52.439Z,100841.07
2018-05-02T20:57:19.958Z,100840.19
2018-05-02T20:59:47.552Z,100837.12
2018-05-02T21:02:15.111Z,100837.95
2018-05-02T21:04:42.962Z,100834.13
2018-05-02T21:07:10.540Z,100831.80
2018-05-02T21:09:38.651Z,100836.13
2018-05-02T21:12:06.216Z,100841.42
2018-05-02T21:14:33.876Z,100847.20
2018-05-02T21:17:01.817Z,100848.39
2018-05-02T21:19:29.365Z,100869.98
2018-05-02T21:21:56.906Z,100873.47
2018-05-02T21:24:24.900Z,100874.34
2018-05-02T21:26:52.467Z,100873.23
2018-05-02T21:29:20.012Z,100872.06
2018-05-02T21:31:47.625Z,100881.71
2018-05-02T21:34:15.410Z,100879.87
2018-05-02T21:36:43.039Z,100886.35
2018-05-02T21:39:10.986Z,100883.63
2018-05-02T21:41:38.531Z,100891.44
2018-05-02T21:44:06.093Z,100890.50
2018-05-02T21:46:33.661Z,100887.98
2018-05-02T21:49:01.287Z,100890.26
2018-05-02T21:51:28.908Z,100892.75
2018-05-02T21:53:56.479Z,100888.13
2018-05-02T21:56:24.080Z,100889.42
2018-05-02T21:58:51.735Z,100893.37
2018-05-02T22:01:19.709Z,100889.93
2018-05-02T22:03:47.418Z,100886.95
2018-05-02T22:06:14.999Z,100887.50
2018-05-02T22:08:42.873Z,100890.98
2018-05-02T22:11:10.688Z,100895.95
2018-05-02T22:13:38.756Z,100896.45
2018-05-02T22:16:06.925Z,100894.16
2018-05-02T22:18:34.966Z,100898.27
2018-05-02T22:21:02.960Z,100898.69
2018-05-02T22:23:30.830Z,100896.64
2018-05-02T22:25:58.999Z,100896.32
2018-05-02T22:28:26.587Z,100896.75
2018-05-02T22:30:54.374Z,100901.33
2018-05-02T22:33:22.332Z,100900.08
2018-05-02T22:35:50.140Z,100895.63
2018-05-02T22:38:17.842Z,100901.67
2018-05-02T22:40:45.630Z,100902.31
2018-05-02T22:43:13.290Z,100910.79
2018-05-02T22:45:40.886Z,100908.31
2018-05-02T22:48:08.440Z,100910.27
2018-05-02T22:50:35.997Z,100913.83
2018-05-02T22:53:03.584Z,100915.52
2018-05-02T22:55:31.210Z,100921.77
2018-05-02T22:57:59.250Z,100926.77
2018-05-02T23:00:26.808Z,100927.09
2018-05-02T23:02:54.355Z,100926.94
2018-05-02T23:05:22.012Z,100927.67
2018-05-02T23:07:49.873Z,100924.00
2018-05-02T23:10:17.427Z,100926.23
2018-05-02T23:12:45.252Z,100924.87
2018-05-02T23:15:13.847Z,100935.77
2018-05-02T23:17:41.393Z,100941.63
2018-05-02T23:20:09.046Z,100944.35
2018-05-02T23:22:36.743Z,100953.83
2018-05-02T23:25:04.309Z,100956.06
2018-05-02T23:27:31.894Z,100954.63
2018-05-02T23:29:59.462Z,100959.60
2018-05-02T23:32:27.093Z,100960.64
2018-05-02T23:34:54.692Z,100959.02
2018-05-02T23:37:22.244Z,100962.00
2018-05-02T23:39:49.800Z,100956.88
2018-05-02T23:42:17.399Z,100963.84
2018-05-02T23:44:44.966Z,100968.01
2018-05-02T23:47:12.732Z,100963.19
2018-05-02T23:49:40.349Z,100971.47
2018-05-02T23:52:07.908Z,100968.00
2018-05-02T23:54:35.509Z,100964.32
2018-05-02T23:57:03.091Z,100964.02
2018-05-02T23:59:30.778Z,100964.23
